Time;durP1;ratioP1;P1;durP2;ratioP2;P2;SDS_P1;SDS_P2;PMS_P1;PMS_P2;Temp;Humidity;BMP_temperature;BMP_pressure;BME280_temperature;BME280_humidity;BME280_pressure;Samples;Min_cycle;Max_cycle;Signal;HPM_P1;HPM_P2
2023/01/28 00:32:19;;;;;;;10.83;6.33;;;0.60;99.90;;;;;;7745572;28;20216;-89
2023/01/28 00:36:05;;;;;;;11.40;6.60;;;0.60;99.90;;;;;;7745555;28;20269;-88
2023/01/28 08:26:53;;;;;;;6.20;4.53;;;-0.70;99.90;;;;;;7808297;23;20716;-89
2023/01/28 08:30:39;;;;;;;6.10;4.40;;;-0.80;99.90;;;;;;7690096;28;20600;-91
2023/01/28 08:34:28;;;;;;;10.17;5.93;;;-0.80;99.90;;;;;;7678215;28;20288;-90
2023/01/28 08:38:16;;;;;;;8.77;5.17;;;-0.70;99.90;;;;;;7685439;28;20662;-90
2023/01/28 08:42:02;;;;;;;11.40;6.17;;;-0.70;99.90;;;;;;7684370;28;20185;-90
2023/01/28 08:45:49;;;;;;;8.23;5.37;;;-0.70;99.90;;;;;;7686805;28;20185;-90
2023/01/28 08:49:36;;;;;;;8.50;6.10;;;-0.70;99.90;;;;;;7705572;28;20208;-90
2023/01/28 08:53:22;;;;;;;9.03;5.13;;;-0.50;99.90;;;;;;7707478;28;20204;-90
2023/01/28 08:57:07;;;;;;;8.33;5.17;;;-0.60;99.90;;;;;;7709685;28;20227;-89
2023/01/28 09:00:53;;;;;;;11.57;5.70;;;-0.50;99.90;;;;;;7703004;28;20642;-90
2023/01/28 09:04:39;;;;;;;65.90;33.27;;;-0.50;99.90;;;;;;7716077;28;20690;-90
2023/01/28 09:08:24;;;;;;;40.00;24.80;;;-0.50;99.90;;;;;;7710585;28;20205;-90
2023/01/28 09:12:10;;;;;;;11.23;8.17;;;-0.60;99.90;;;;;;7705714;28;20189;-89
2023/01/28 09:15:56;;;;;;;153.27;13.83;;;-0.60;99.90;;;;;;7695223;28;20557;-92
2023/01/28 09:19:41;;;;;;;20.47;5.70;;;-0.50;99.90;;;;;;7689313;28;20217;-92
2023/01/28 09:23:27;;;;;;;9.90;5.97;;;-0.50;99.90;;;;;;7698926;28;20204;-92
2023/01/28 09:27:12;;;;;;;14.73;6.57;;;-0.60;99.90;;;;;;7685007;28;20291;-91
2023/01/28 09:31:18;;;;;;;7.20;4.70;;;-0.60;99.90;;;;;;7687997;29;20193;-92
2023/01/28 09:35:04;;;;;;;11.63;5.90;;;-0.70;99.90;;;;;;7685364;28;20239;-92
2023/01/28 09:38:50;;;;;;;11.67;6.50;;;-0.70;99.90;;;;;;7687347;28;20236;-92
2023/01/28 09:42:58;;;;;;;8.33;5.87;;;-0.70;99.90;;;;;;7687348;28;20909;-91
2023/01/28 09:46:46;;;;;;;11.03;6.27;;;-0.70;99.90;;;;;;7694848;28;20188;-93
2023/01/28 09:50:33;;;;;;;17.80;10.43;;;-0.60;99.90;;;;;;7708262;28;20239;-92
2023/01/28 09:54:40;;;;;;;8.30;5.17;;;-0.60;99.90;;;;;;7692946;28;20200;-92
2023/01/28 09:58:26;;;;;;;11.57;6.53;;;-0.60;99.90;;;;;;7677458;28;20241;-91
2023/01/28 10:02:25;;;;;;;15.07;8.40;;;-0.50;99.90;;;;;;7676470;29;20189;-90
2023/01/28 10:06:59;;;;;;;12.23;7.67;;;-0.50;99.90;;;;;;7678543;29;20185;-91
2023/01/28 10:11:11;;;;;;;20.87;11.50;;;-0.50;99.90;;;;;;7628047;29;20894;-91
2023/01/28 10:15:05;;;;;;;12.30;5.57;;;-0.50;99.90;;;;;;7621480;29;20242;-90
2023/01/28 10:18:59;;;;;;;9.40;6.43;;;-0.50;99.90;;;;;;7627681;29;20598;-91
2023/01/28 10:22:55;;;;;;;12.37;7.10;;;-0.50;99.90;;;;;;7627386;29;20286;-90
2023/01/28 10:26:42;;;;;;;16.03;9.77;;;-0.50;99.90;;;;;;7628076;29;20190;-91
2023/01/28 10:30:34;;;;;;;14.33;9.37;;;-0.50;99.90;;;;;;7638352;29;20178;-91
2023/01/28 10:34:21;;;;;;;14.67;9.33;;;-0.50;99.90;;;;;;7635432;29;20206;-91
2023/01/28 10:38:13;;;;;;;7.63;5.33;;;-0.50;99.90;;;;;;7615385;29;20230;-92
2023/01/28 10:42:26;;;;;;;10.57;6.30;;;-0.50;99.90;;;;;;7612050;29;20258;-91
2023/01/28 10:46:16;;;;;;;9.63;5.87;;;-0.50;99.90;;;;;;7636772;29;20197;-91
2023/01/28 10:50:30;;;;;;;8.53;5.70;;;-0.60;99.90;;;;;;7699706;28;20201;-91
2023/01/28 10:54:24;;;;;;;8.40;6.13;;;-0.70;99.90;;;;;;7690065;28;20228;-91
2023/01/28 10:58:21;;;;;;;12.17;7.50;;;-0.70;99.90;;;;;;7681045;29;20622;-90
2023/01/28 11:02:21;;;;;;;17.77;8.47;;;-0.70;99.90;;;;;;7692015;28;20185;-91
2023/01/28 11:06:26;;;;;;;9.63;5.60;;;-0.70;99.90;;;;;;7688230;28;20219;-90
2023/01/28 11:10:46;;;;;;;7.73;4.80;;;-0.70;99.90;;;;;;7688311;28;20174;-90
2023/01/28 11:14:57;;;;;;;7.70;4.93;;;-0.70;99.90;;;;;;7640018;29;20239;-91
2023/01/28 11:19:03;;;;;;;9.63;5.70;;;-0.80;99.90;;;;;;7641028;29;20221;-92
2023/01/28 11:22:51;;;;;;;5.53;4.20;;;-0.70;99.90;;;;;;7657521;28;20209;-90
2023/01/28 11:27:14;;;;;;;7.67;4.40;;;-0.70;99.90;;;;;;7649761;29;20651;-90
2023/01/28 11:31:02;;;;;;;6.10;3.30;;;-0.60;99.90;;;;;;7664528;29;20688;-91
2023/01/28 11:34:51;;;;;;;10.00;3.50;;;-0.60;99.90;;;;;;7669253;29;20205;-91
2023/01/28 11:38:53;;;;;;;7.90;4.70;;;-0.70;99.90;;;;;;7665388;29;20702;-91
2023/01/28 11:43:13;;;;;;;6.17;4.30;;;-0.70;99.90;;;;;;7655043;29;20273;-90
2023/01/28 11:47:47;;;;;;;6.77;3.70;;;-0.80;99.90;;;;;;7639107;29;20185;-90
2023/01/28 11:52:05;;;;;;;7.03;4.50;;;-0.70;99.90;;;;;;7687545;29;20202;-90
2023/01/28 11:56:22;;;;;;;7.43;4.23;;;-0.90;99.90;;;;;;7709719;28;20725;-90
2023/01/28 12:01:01;;;;;;;5.83;3.97;;;-0.90;99.90;;;;;;7690852;28;20254;-90
2023/01/28 12:04:53;;;;;;;5.97;4.30;;;-0.90;99.90;;;;;;7689777;28;20262;-92
2023/01/28 12:08:50;;;;;;;11.37;5.00;;;-0.90;99.90;;;;;;7690108;28;20213;-91
2023/01/28 12:12:54;;;;;;;9.83;6.67;;;-0.80;99.90;;;;;;7710804;28;20204;-90
2023/01/28 12:17:08;;;;;;;8.47;4.33;;;-0.80;99.90;;;;;;7705155;28;20257;-91
2023/01/28 12:21:09;;;;;;;9.13;5.40;;;-0.80;99.90;;;;;;7674230;28;20193;-87
2023/01/28 12:25:16;;;;;;;9.03;6.30;;;-0.70;99.90;;;;;;7686039;28;20232;-87
2023/01/28 12:29:07;;;;;;;10.30;5.63;;;-0.70;99.90;;;;;;7687271;28;20200;-88
2023/01/28 12:33:19;;;;;;;28.83;15.40;;;-0.70;99.90;;;;;;7708854;28;20221;-89
2023/01/28 12:37:24;;;;;;;334.30;128.97;;;-0.70;99.90;;;;;;7728535;28;20229;-87
2023/01/28 12:41:17;;;;;;;653.37;330.93;;;-0.70;99.90;;;;;;7702282;28;20268;-87
2023/01/28 12:45:17;;;;;;;131.83;62.87;;;-0.70;99.90;;;;;;7689401;28;20213;-88
2023/01/28 12:49:22;;;;;;;100.33;50.07;;;-0.60;99.90;;;;;;7684971;28;20184;-86
2023/01/28 12:53:49;;;;;;;258.27;118.57;;;-0.70;99.90;;;;;;7682825;28;20208;-88
2023/01/28 12:57:35;;;;;;;19.40;10.77;;;-0.70;99.90;;;;;;7698344;23;20232;-87
2023/01/28 13:01:44;;;;;;;31.27;18.80;;;-0.60;99.90;;;;;;7724086;28;20179;-88
2023/01/28 13:05:42;;;;;;;97.93;50.33;;;-0.50;99.90;;;;;;7678037;28;20212;-87
2023/01/28 13:09:30;;;;;;;82.13;41.00;;;-0.50;99.90;;;;;;7698302;28;20177;-88
2023/01/28 13:13:28;;;;;;;62.63;40.13;;;-0.50;99.90;;;;;;7705349;28;20234;-91
2023/01/28 13:17:28;;;;;;;51.47;30.20;;;-0.60;99.90;;;;;;7709441;28;20192;-84
2023/01/28 13:21:22;;;;;;;20.20;13.00;;;-0.60;99.90;;;;;;7694304;28;20184;-82
2023/01/28 13:25:20;;;;;;;14.43;9.87;;;-0.60;99.90;;;;;;7698586;28;20554;-87
2023/01/28 13:29:29;;;;;;;28.77;16.67;;;-0.50;99.90;;;;;;7687706;28;20185;-87
2023/01/28 13:33:29;;;;;;;21.90;12.07;;;-0.60;99.90;;;;;;7689083;28;20202;-87
2023/01/28 13:37:32;;;;;;;84.37;41.73;;;-0.50;99.90;;;;;;7695896;28;20233;-87
2023/01/28 13:41:18;;;;;;;29.40;18.77;;;-0.60;99.90;;;;;;7695664;28;20232;-87
2023/01/28 13:45:21;;;;;;;51.90;34.73;;;-0.60;99.90;;;;;;7690811;28;20201;-88
2023/01/28 13:49:15;;;;;;;125.20;63.77;;;-0.60;99.90;;;;;;7691045;28;20184;-87
2023/01/28 13:53:21;;;;;;;87.10;44.70;;;-0.70;99.90;;;;;;7699270;28;21154;-88
2023/01/28 13:57:16;;;;;;;21.30;12.70;;;-0.70;99.90;;;;;;7694492;28;20208;-88
2023/01/28 14:01:02;;;;;;;47.83;27.90;;;-0.70;99.90;;;;;;7691562;28;20176;-89
2023/01/28 14:04:53;;;;;;;30.77;19.03;;;-0.60;99.90;;;;;;7689828;28;20204;-88
2023/01/28 14:09:22;;;;;;;243.30;123.23;;;-0.60;99.90;;;;;;7690259;28;20671;-87
2023/01/28 14:13:33;;;;;;;55.03;29.67;;;-0.70;99.90;;;;;;7691488;28;20620;-86
2023/01/28 14:17:35;;;;;;;39.00;23.40;;;-0.60;99.90;;;;;;7698022;28;20201;-86
2023/01/28 14:21:21;;;;;;;24.47;16.00;;;-0.60;99.90;;;;;;7684986;28;20236;-88
2023/01/28 14:25:13;;;;;;;60.87;25.93;;;-0.70;99.90;;;;;;7688448;28;20251;-86
2023/01/28 14:29:18;;;;;;;95.20;51.67;;;-0.70;99.90;;;;;;7682012;28;20754;-84
2023/01/28 14:33:10;;;;;;;155.30;75.37;;;-0.70;99.90;;;;;;7685777;28;20213;-87
2023/01/28 14:37:11;;;;;;;39.03;20.67;;;-0.70;99.90;;;;;;7684780;28;20248;-86
2023/01/28 14:40:57;;;;;;;72.77;31.43;;;-0.80;99.90;;;;;;7683208;29;20177;-85
2023/01/28 14:44:43;;;;;;;34.90;16.00;;;-0.80;99.90;;;;;;7696518;28;20689;-90
2023/01/28 14:48:50;;;;;;;20.77;12.33;;;-0.80;99.90;;;;;;7693603;28;20185;-87
2023/01/28 14:53:01;;;;;;;60.97;34.57;;;-0.70;99.90;;;;;;7704174;23;20534;-84
2023/01/28 14:57:05;;;;;;;29.90;17.83;;;-0.50;99.90;;;;;;7721525;28;20216;-84
2023/01/28 15:00:58;;;;;;;35.40;17.63;;;-0.40;99.90;;;;;;7720713;28;20200;-83
2023/01/28 15:04:43;;;;;;;55.13;29.07;;;-0.40;99.90;;;;;;7722863;28;20209;-84
2023/01/28 15:09:06;;;;;;;43.83;22.20;;;-0.50;99.90;;;;;;7722310;28;20271;-94
2023/01/28 15:13:35;;;;;;;44.83;20.47;;;-0.40;99.90;;;;;;7727154;28;20222;-94
2023/01/28 15:17:39;;;;;;;29.80;14.97;;;-0.40;99.90;;;;;;7735353;28;20228;-95
2023/01/28 15:21:27;;;;;;;16.97;9.93;;;-0.40;99.90;;;;;;7713567;28;20181;-87
2023/01/28 15:25:28;;;;;;;18.13;9.13;;;-0.30;99.90;;;;;;7700528;28;20208;-90
2023/01/28 15:37:23;;;;;;;28.60;14.77;;;0.10;99.90;;;;;;7686846;29;20221;-90
2023/01/28 15:41:11;;;;;;;180.73;93.07;;;0.20;99.90;;;;;;7687324;28;20209;-90
2023/01/28 15:45:17;;;;;;;14.13;8.77;;;0.40;99.90;;;;;;7682546;28;20228;-92
2023/01/28 15:49:03;;;;;;;17.73;8.97;;;0.40;99.90;;;;;;7692099;28;20188;-87
2023/01/28 15:52:54;;;;;;;36.63;21.13;;;0.50;99.90;;;;;;7702957;28;20213;-92
2023/01/28 15:56:40;;;;;;;24.83;13.47;;;0.60;99.90;;;;;;7687721;28;20280;-92
2023/01/28 16:00:39;;;;;;;19.00;10.83;;;0.60;99.90;;;;;;7690139;28;20678;-92
2023/01/28 16:05:03;;;;;;;17.50;10.37;;;0.60;99.90;;;;;;7694825;28;20204;-90
2023/01/28 16:09:19;;;;;;;21.27;11.43;;;0.70;99.90;;;;;;7692474;28;20284;-93
2023/01/28 16:13:06;;;;;;;19.00;10.15;;;0.70;99.90;;;;;;7695029;28;20433;-92
2023/01/28 16:16:58;;;;;;;96.60;42.70;;;0.60;99.90;;;;;;7699105;28;20701;-93
2023/01/28 16:20:53;;;;;;;26.10;13.50;;;0.50;99.90;;;;;;7706943;28;20181;-85
2023/01/28 16:24:48;;;;;;;26.10;12.60;;;0.40;99.90;;;;;;7713309;28;20233;-89
2023/01/28 16:28:34;;;;;;;13.40;7.13;;;0.40;99.90;;;;;;7723661;28;20717;-91
2023/01/28 16:32:36;;;;;;;29.00;16.27;;;0.30;99.90;;;;;;7716625;28;20551;-88
2023/01/28 16:36:25;;;;;;;12.57;7.53;;;0.20;99.90;;;;;;7718043;28;20223;-91
2023/01/28 16:40:12;;;;;;;6.87;4.43;;;0.10;99.90;;;;;;7691987;28;20230;-91
2023/01/28 16:44:04;;;;;;;9.77;6.10;;;0.10;99.90;;;;;;7696216;28;20201;-91
2023/01/28 16:47:51;;;;;;;24.83;15.90;;;0.10;99.90;;;;;;7675897;28;20216;-90
2023/01/28 16:51:39;;;;;;;26.33;15.53;;;0.10;99.90;;;;;;7684877;28;20180;-91
2023/01/28 16:55:43;;;;;;;15.47;10.33;;;0.10;99.90;;;;;;7679852;28;20205;-92
2023/01/28 16:59:29;;;;;;;21.43;13.70;;;0.00;99.90;;;;;;7686285;28;20225;-92
2023/01/28 17:03:15;;;;;;;16.33;10.87;;;0.00;99.90;;;;;;7684750;29;20318;-90
2023/01/28 17:07:04;;;;;;;14.60;7.47;;;0.00;99.90;;;;;;7687042;29;20192;-91
2023/01/28 17:10:55;;;;;;;22.20;12.23;;;0.10;99.90;;;;;;7685069;28;20193;-91
2023/01/28 17:14:53;;;;;;;13.97;8.60;;;0.10;99.90;;;;;;7701638;28;20212;-90
2023/01/28 17:18:39;;;;;;;12.40;8.80;;;0.00;99.90;;;;;;7687198;28;20299;-90
2023/01/28 17:22:24;;;;;;;11.30;5.83;;;0.00;99.90;;;;;;7684877;28;20273;-90
2023/01/28 17:26:13;;;;;;;21.80;10.50;;;-0.20;99.90;;;;;;7693038;28;20189;-92
2023/01/28 17:30:29;;;;;;;22.40;11.30;;;-0.30;99.90;;;;;;7690672;29;20221;-91
2023/01/28 17:34:15;;;;;;;16.53;8.33;;;-0.40;99.90;;;;;;7636848;29;20230;-92
2023/01/28 17:38:02;;;;;;;7.70;5.70;;;-0.30;99.90;;;;;;7636670;29;20206;-92
2023/01/28 17:41:51;;;;;;;10.77;6.30;;;-0.30;99.90;;;;;;7636521;29;20205;-91
2023/01/28 17:45:36;;;;;;;8.23;4.50;;;-0.30;99.90;;;;;;7636208;29;20206;-90
2023/01/28 17:49:22;;;;;;;10.40;6.40;;;-0.30;99.90;;;;;;7634779;29;20806;-91
2023/01/28 17:53:10;;;;;;;18.57;10.83;;;-0.40;99.90;;;;;;7638227;29;20683;-92
2023/01/28 17:56:57;;;;;;;11.60;5.23;;;-0.50;99.90;;;;;;7636418;29;20292;-90
2023/01/28 18:00:48;;;;;;;24.27;11.93;;;-0.50;99.90;;;;;;7622505;29;20540;-92
2023/01/28 18:04:38;;;;;;;21.70;11.27;;;-0.50;99.90;;;;;;7647078;29;20202;-91
2023/01/28 18:08:25;;;;;;;15.80;7.77;;;-0.50;99.90;;;;;;7659607;29;20685;-90
2023/01/28 18:12:14;;;;;;;11.17;6.97;;;-0.40;99.90;;;;;;7641999;29;20205;-91
2023/01/28 18:15:59;;;;;;;14.43;7.57;;;-0.40;99.90;;;;;;7646155;29;20216;-93
2023/01/28 18:19:59;;;;;;;20.50;10.83;;;-0.30;99.90;;;;;;7689308;29;20181;-91
2023/01/28 18:23:46;;;;;;;16.80;8.97;;;-0.20;99.90;;;;;;7690631;28;20289;-93
2023/01/28 18:27:32;;;;;;;16.57;10.83;;;-0.20;99.90;;;;;;7689152;29;20193;-93
2023/01/28 18:31:47;;;;;;;13.93;7.70;;;-0.20;99.90;;;;;;7693500;29;20192;-93
2023/01/28 18:35:32;;;;;;;50.37;25.40;;;-0.30;99.90;;;;;;7693619;28;20240;-92
2023/01/28 18:39:19;;;;;;;10.67;4.70;;;-0.30;99.90;;;;;;7710399;28;20220;-89
2023/01/28 18:43:10;;;;;;;6.27;4.33;;;-0.30;99.90;;;;;;7703209;28;20209;-93
2023/01/28 18:47:17;;;;;;;22.20;9.70;;;-0.50;99.90;;;;;;7725640;28;20191;-92
2023/01/28 18:51:03;;;;;;;11.97;6.27;;;-0.50;99.90;;;;;;7691804;28;20227;-93
2023/01/28 19:05:09;;;;;;;32.33;15.93;;;-0.60;99.90;;;;;;7666715;29;20202;-91
2023/01/28 19:09:44;;;;;;;25.13;14.07;;;-0.70;99.90;;;;;;7686496;28;20197;-92
2023/01/28 19:13:29;;;;;;;16.37;10.10;;;-0.70;99.90;;;;;;7606400;29;20582;-92
2023/01/28 19:17:20;;;;;;;132.37;61.77;;;-0.70;99.90;;;;;;7584369;29;20250;-93
2023/01/28 19:21:05;;;;;;;163.67;90.03;;;-0.70;99.90;;;;;;7567265;29;20180;-90
2023/01/28 19:24:52;;;;;;;59.23;31.97;;;-0.70;99.90;;;;;;7585606;29;20231;-91
2023/01/28 19:28:38;;;;;;;112.40;58.83;;;-0.70;99.90;;;;;;7567986;29;20290;-85
2023/01/28 19:32:27;;;;;;;104.77;51.00;;;-0.80;99.90;;;;;;7585066;29;20202;-91
2023/01/28 19:36:13;;;;;;;41.30;22.00;;;-0.80;99.90;;;;;;7589090;29;20279;-92
2023/01/28 19:39:59;;;;;;;22.93;14.13;;;-0.80;99.90;;;;;;7589168;29;20262;-87
2023/01/28 19:43:44;;;;;;;40.80;21.80;;;-0.80;99.90;;;;;;7597725;29;20207;-92
2023/01/28 19:47:31;;;;;;;201.90;123.30;;;-0.70;99.90;;;;;;7593693;29;20184;-93
2023/01/28 19:51:18;;;;;;;56.30;35.13;;;-0.70;99.90;;;;;;7652981;29;20674;-92
2023/01/28 19:55:06;;;;;;;15.23;7.97;;;-0.70;99.90;;;;;;7669759;29;20288;-93
2023/01/28 19:58:53;;;;;;;11.67;6.80;;;-0.60;99.90;;;;;;7687926;29;20264;-93
2023/01/28 20:02:40;;;;;;;36.97;19.57;;;-0.70;99.90;;;;;;7686932;29;20292;-93
2023/01/28 20:06:28;;;;;;;17.20;10.87;;;-0.70;99.90;;;;;;7658561;28;20213;-92
2023/01/28 20:10:14;;;;;;;18.70;10.93;;;-0.80;99.90;;;;;;7698398;28;20268;-92
2023/01/28 20:13:59;;;;;;;17.10;9.57;;;-0.80;99.90;;;;;;7686177;29;20224;-92
2023/01/28 20:17:45;;;;;;;19.50;10.53;;;-0.80;99.90;;;;;;7699426;28;20236;-87
2023/01/28 20:21:32;;;;;;;41.63;20.30;;;-0.80;99.90;;;;;;7691783;28;20177;-92
2023/01/28 20:25:32;;;;;;;39.87;19.83;;;-0.80;99.90;;;;;;7685947;29;20252;-92
2023/01/28 20:29:19;;;;;;;35.87;18.37;;;-0.80;99.90;;;;;;7686253;28;20663;-92
2023/01/28 20:33:05;;;;;;;18.07;10.77;;;-0.80;99.90;;;;;;7686916;28;20193;-91
2023/01/28 20:36:55;;;;;;;18.00;10.57;;;-0.80;99.90;;;;;;7685515;29;20212;-93
2023/01/28 20:40:41;;;;;;;58.23;28.50;;;-0.80;99.90;;;;;;7686213;28;20178;-92
2023/01/28 20:44:30;;;;;;;24.43;13.93;;;-0.80;99.90;;;;;;7687008;29;20205;-91
2023/01/28 20:48:16;;;;;;;19.00;11.67;;;-0.80;99.90;;;;;;7686250;29;20185;-91
2023/01/28 20:52:03;;;;;;;21.63;12.17;;;-0.90;99.90;;;;;;7686301;29;20181;-92
2023/01/28 20:56:41;;;;;;;22.33;12.03;;;-0.90;99.90;;;;;;7686604;29;20561;-91
2023/01/28 21:00:27;;;;;;;21.03;12.30;;;-0.80;99.90;;;;;;7698241;28;20173;-91
2023/01/28 21:04:13;;;;;;;25.03;12.63;;;-0.80;99.90;;;;;;7681459;28;20207;-91
2023/01/28 21:08:02;;;;;;;21.37;10.93;;;-0.80;99.90;;;;;;7691794;28;20195;-89
2023/01/28 21:11:51;;;;;;;18.13;10.77;;;-0.80;99.90;;;;;;7684504;29;20185;-91
2023/01/28 21:15:36;;;;;;;22.50;11.80;;;-0.80;99.90;;;;;;7683928;29;20292;-91
2023/01/28 21:19:22;;;;;;;22.80;12.23;;;-0.80;99.90;;;;;;7683905;29;20212;-90
2023/01/28 21:23:13;;;;;;;23.80;12.43;;;-0.90;99.90;;;;;;7683943;29;20201;-90
2023/01/28 21:26:59;;;;;;;22.07;12.57;;;-0.80;99.90;;;;;;7685021;29;20188;-90
2023/01/28 21:30:46;;;;;;;25.37;13.27;;;-0.80;99.90;;;;;;7684985;29;20200;-90
2023/01/28 21:34:31;;;;;;;30.93;15.30;;;-0.70;99.90;;;;;;7684633;29;20796;-90
2023/01/28 21:38:54;;;;;;;23.77;12.43;;;-0.70;99.90;;;;;;7684808;29;20213;-89
2023/01/28 21:42:52;;;;;;;20.43;11.20;;;-0.70;99.90;;;;;;7691268;29;20196;-91
2023/01/28 21:46:37;;;;;;;20.53;12.60;;;-0.80;99.90;;;;;;7696755;29;20209;-92
2023/01/28 21:50:23;;;;;;;21.13;11.87;;;-0.80;99.90;;;;;;7690180;29;20178;-93
2023/01/28 21:54:15;;;;;;;20.93;11.33;;;-0.80;99.90;;;;;;7689839;28;20239;-92
2023/01/28 22:02:32;;;;;;;20.63;11.53;;;-0.90;99.90;;;;;;7692151;29;20173;-93
2023/01/28 22:06:18;;;;;;;21.33;12.03;;;-0.90;99.90;;;;;;7702548;29;20206;-91
2023/01/28 22:10:03;;;;;;;21.33;12.17;;;-0.90;99.90;;;;;;7700643;29;20196;-93
2023/01/28 22:13:49;;;;;;;20.90;11.37;;;-0.90;99.90;;;;;;7690426;29;20205;-92
2023/01/28 22:17:35;;;;;;;24.07;12.33;;;-1.00;99.90;;;;;;7689020;29;20717;-92
2023/01/28 22:21:20;;;;;;;22.73;11.57;;;-1.00;99.90;;;;;;7689606;29;20236;-92
2023/01/28 22:25:06;;;;;;;25.17;12.17;;;-1.00;99.90;;;;;;7689156;29;20205;-91
2023/01/28 22:28:52;;;;;;;24.47;12.73;;;-1.00;99.90;;;;;;7689113;29;20224;-92
2023/01/28 22:32:37;;;;;;;22.70;12.07;;;-0.90;99.90;;;;;;7689061;29;20233;-92
2023/01/28 22:36:23;;;;;;;20.80;11.17;;;-1.00;99.90;;;;;;7688727;29;20224;-93
2023/01/28 22:40:09;;;;;;;21.90;11.33;;;-1.00;99.90;;;;;;7689604;29;20548;-92
2023/01/28 22:43:55;;;;;;;22.17;10.93;;;-1.00;99.90;;;;;;7689179;29;20212;-92
2023/01/28 22:47:42;;;;;;;22.43;10.97;;;-0.90;99.90;;;;;;7689149;29;20185;-92
2023/01/28 22:51:31;;;;;;;18.30;10.53;;;-0.90;99.90;;;;;;7688952;28;20193;-91
2023/01/28 22:55:17;;;;;;;20.87;11.50;;;-1.00;99.90;;;;;;7688544;29;20576;-92
2023/01/28 22:59:03;;;;;;;23.00;11.87;;;-1.00;99.90;;;;;;7688557;29;20235;-92
2023/01/28 23:02:48;;;;;;;21.60;11.07;;;-1.00;99.90;;;;;;7688527;29;20208;-93
2023/01/28 23:06:36;;;;;;;22.43;11.77;;;-1.10;99.90;;;;;;7688100;29;20755;-91
2023/01/28 23:10:21;;;;;;;20.27;10.50;;;-1.00;99.90;;;;;;7688372;29;20192;-92
2023/01/28 23:26:36;;;;;;;21.80;10.97;;;-1.00;99.90;;;;;;7688887;29;20256;-92
2023/01/28 23:30:24;;;;;;;23.83;11.40;;;-1.00;99.90;;;;;;7687505;29;20248;-92
2023/01/28 23:34:09;;;;;;;19.67;10.27;;;-0.90;99.90;;;;;;7687300;29;20240;-92
2023/01/28 23:37:55;;;;;;;21.77;11.23;;;-0.90;99.90;;;;;;7687021;29;20201;-92
2023/01/28 23:41:41;;;;;;;19.10;10.23;;;-1.10;99.90;;;;;;7687299;29;20185;-92
2023/01/28 23:45:26;;;;;;;19.60;9.83;;;-1.10;99.90;;;;;;7686793;29;20206;-91
2023/01/28 23:49:12;;;;;;;19.00;10.23;;;-1.20;99.90;;;;;;7686703;29;20611;-92
2023/01/28 23:52:59;;;;;;;19.47;10.23;;;-1.30;99.90;;;;;;7686855;29;20503;-92
2023/01/28 23:56:44;;;;;;;19.57;10.73;;;-1.30;99.90;;;;;;7686152;29;20209;-92
